Time;durP1;ratioP1;P1;durP2;ratioP2;P2;SDS_P1;SDS_P2;PMS_P1;PMS_P2;Temp;Humidity;BMP_temperature;BMP_pressure;BME280_temperature;BME280_humidity;BME280_pressure;Samples;Min_cycle;Max_cycle;Signal;HPM_P1;HPM_P2
2022/03/24 00:01:57;;;;;;;42.27;23.33;;;;;;;6.03;65.65;102355.25;5114468;28;20202;-68
2022/03/24 00:04:24;;;;;;;39.60;24.33;;;;;;;6.00;65.87;102352.63;5127671;27;20217;-68
2022/03/24 00:06:50;;;;;;;32.50;22.00;;;;;;;5.95;66.15;102351.78;5134927;27;20659;-68
2022/03/24 00:09:17;;;;;;;39.33;22.17;;;;;;;5.89;66.66;102357.78;5135215;27;20266;-68
2022/03/24 00:11:43;;;;;;;38.50;23.23;;;;;;;5.86;66.50;102354.28;5130188;27;20274;-67
2022/03/24 00:14:10;;;;;;;40.20;26.10;;;;;;;5.85;66.27;102349.94;5134773;27;20209;-68
2022/03/24 00:16:36;;;;;;;42.13;25.07;;;;;;;5.83;66.40;102356.88;5135059;27;20185;-68
2022/03/24 00:19:03;;;;;;;39.90;25.53;;;;;;;5.76;66.45;102349.03;5134730;27;20208;-68
2022/03/24 00:21:29;;;;;;;43.73;25.20;;;;;;;5.74;66.67;102350.78;5132643;27;20184;-68
2022/03/24 00:23:57;;;;;;;42.33;22.73;;;;;;;5.69;66.79;102352.47;5132923;27;20679;-68
2022/03/24 00:26:24;;;;;;;48.03;25.27;;;;;;;5.60;67.48;102356.75;5134586;27;20621;-68
2022/03/24 00:28:50;;;;;;;42.17;25.17;;;;;;;5.57;68.08;102354.13;5095758;28;20656;-68
2022/03/24 00:31:17;;;;;;;49.67;25.30;;;;;;;5.52;68.64;102348.94;5096036;28;20536;-68
2022/03/24 00:33:43;;;;;;;43.50;25.33;;;;;;;5.49;68.81;102341.09;5113744;28;20242;-68
2022/03/24 00:36:10;;;;;;;47.97;25.67;;;;;;;5.45;69.43;102347.16;5113936;28;20190;-68
2022/03/24 00:38:38;;;;;;;44.57;25.23;;;;;;;5.47;69.60;102346.28;5113872;28;20296;-68
2022/03/24 00:41:05;;;;;;;42.97;26.37;;;;;;;5.44;69.86;102346.28;5095668;28;20286;-68
2022/03/24 00:43:33;;;;;;;43.53;26.73;;;;;;;5.51;70.06;102336.81;5129371;27;20221;-68
2022/03/24 00:45:59;;;;;;;41.03;26.20;;;;;;;5.47;70.08;102340.22;5116053;28;20192;-68
2022/03/24 00:48:26;;;;;;;43.27;26.17;;;;;;;5.44;70.15;102342.81;5115960;28;20558;-68
2022/03/24 00:50:54;;;;;;;38.10;25.40;;;;;;;5.41;70.06;102340.19;5115784;27;20197;-68
2022/03/24 00:53:21;;;;;;;41.17;26.40;;;;;;;5.36;70.23;102340.19;5120101;28;20223;-68
2022/03/24 00:55:47;;;;;;;34.93;24.43;;;;;;;5.33;70.42;102340.13;5095601;28;20186;-68
2022/03/24 00:58:15;;;;;;;39.00;25.30;;;;;;;5.27;70.56;102340.09;5106351;28;20220;-68
2022/03/24 01:00:41;;;;;;;40.17;25.03;;;;;;;5.25;70.62;102340.09;5134177;28;20191;-68
2022/03/24 01:03:09;;;;;;;39.83;26.50;;;;;;;5.19;70.58;102334.84;5134124;28;20275;-68
2022/03/24 01:05:37;;;;;;;38.63;24.23;;;;;;;5.14;70.86;102341.75;5101973;28;20655;-67
2022/03/24 01:08:06;;;;;;;48.87;24.73;;;;;;;5.12;70.71;102340.00;5113864;28;20231;-68
2022/03/24 01:10:32;;;;;;;51.27;27.20;;;;;;;5.07;70.67;102334.78;5114141;28;20187;-68
2022/03/24 01:12:59;;;;;;;43.80;25.70;;;;;;;5.06;70.91;102340.81;5101918;28;20252;-68
2022/03/24 01:15:28;;;;;;;39.77;25.90;;;;;;;5.02;71.01;102330.41;5134063;28;20596;-68
2022/03/24 01:17:59;;;;;;;34.77;23.90;;;;;;;5.02;71.10;102328.69;5115645;28;20188;-68
2022/03/24 01:20:28;;;;;;;44.10;24.23;;;;;;;4.91;72.57;102327.72;5134353;28;20173;-68
2022/03/24 01:22:57;;;;;;;38.13;23.97;;;;;;;4.95;72.06;102332.09;5109140;28;20281;-67
2022/03/24 01:25:27;;;;;;;44.67;24.77;;;;;;;4.97;72.47;102327.78;5114006;28;20193;-68
2022/03/24 01:27:54;;;;;;;47.37;24.00;;;;;;;4.98;72.51;102325.19;5099037;28;20596;-67
2022/03/24 01:30:21;;;;;;;40.77;23.43;;;;;;;4.90;72.52;102324.25;5115474;28;20188;-68
2022/03/24 01:32:47;;;;;;;41.77;25.93;;;;;;;4.87;73.10;102320.78;5134346;28;20216;-68
2022/03/24 01:35:16;;;;;;;36.33;23.37;;;;;;;4.73;73.77;102320.66;5114670;28;20193;-68
2022/03/24 01:37:42;;;;;;;34.10;23.30;;;;;;;4.71;73.76;102319.75;5115452;28;20188;-68
2022/03/24 01:40:11;;;;;;;33.80;23.03;;;;;;;4.74;73.43;102329.31;5133783;28;20200;-68
2022/03/24 01:42:40;;;;;;;34.50;23.17;;;;;;;4.73;73.97;102319.78;5115120;28;20634;-68
2022/03/24 01:45:08;;;;;;;38.20;23.63;;;;;;;4.72;74.08;102315.47;5113273;28;20239;-68
2022/03/24 01:47:35;;;;;;;42.27;23.80;;;;;;;4.67;74.29;102318.00;5095228;28;20201;-68
2022/03/24 01:50:04;;;;;;;45.03;24.57;;;;;;;4.65;74.48;102320.59;5113497;28;20188;-68
2022/03/24 01:52:31;;;;;;;39.33;23.43;;;;;;;4.58;74.35;102317.94;5113111;28;20182;-68
2022/03/24 01:54:59;;;;;;;36.77;23.77;;;;;;;4.55;74.44;102313.56;5113627;28;20566;-67
2022/03/24 01:57:27;;;;;;;36.80;23.77;;;;;;;4.50;74.69;102316.97;5133987;28;20182;-67
2022/03/24 01:59:54;;;;;;;41.70;24.83;;;;;;;4.44;74.91;102315.22;5098214;28;20296;-67
2022/03/24 02:02:21;;;;;;;43.40;24.23;;;;;;;4.34;75.16;102315.94;5113350;28;20182;-67
2022/03/24 02:04:48;;;;;;;43.10;23.90;;;;;;;4.23;75.30;102315.00;5116917;27;20605;-67
2022/03/24 02:07:20;;;;;;;45.97;25.30;;;;;;;4.18;75.70;102314.06;5098760;28;20193;-67
2022/03/24 02:09:47;;;;;;;37.60;23.73;;;;;;;4.18;75.95;102314.06;5098490;28;20217;-68
2022/03/24 02:12:17;;;;;;;36.50;25.43;;;;;;;4.18;76.34;102312.34;5098659;28;20238;-68
2022/03/24 02:14:43;;;;;;;38.63;23.37;;;;;;;4.13;76.24;102307.09;5111226;27;20258;-68
2022/03/24 02:17:10;;;;;;;40.43;23.63;;;;;;;4.15;76.34;102317.50;5118754;27;20653;-68
2022/03/24 02:19:37;;;;;;;41.23;25.50;;;;;;;4.12;76.41;102305.34;5118672;27;20705;-69
2022/03/24 02:22:09;;;;;;;44.60;26.57;;;;;;;4.12;76.39;102302.75;5118678;27;20283;-69
2022/03/24 02:24:37;;;;;;;41.43;24.13;;;;;;;4.02;76.69;102315.63;5124746;27;20201;-67
2022/03/24 02:27:04;;;;;;;45.83;25.83;;;;;;;3.98;76.61;102306.94;5116450;28;20185;-67
2022/03/24 02:29:31;;;;;;;38.73;23.90;;;;;;;3.98;76.98;102309.53;5125779;27;20218;-67
2022/03/24 02:31:58;;;;;;;37.50;23.77;;;;;;;3.95;77.09;102304.31;5136863;27;20233;-67
2022/03/24 02:34:37;;;;;;;53.27;24.37;;;;;;;3.92;77.47;102303.41;5136769;27;20207;-67
2022/03/24 02:37:07;;;;;;;44.40;24.93;;;;;;;3.90;77.70;102299.91;5122927;27;20185;-67
2022/03/24 02:39:39;;;;;;;39.87;25.47;;;;;;;3.89;77.84;102301.66;5116134;28;20186;-67
2022/03/24 02:42:07;;;;;;;40.40;24.20;;;;;;;3.86;78.17;102304.22;5116129;28;20550;-67
2022/03/24 02:44:33;;;;;;;45.47;25.20;;;;;;;3.82;78.10;102299.84;5123820;27;20205;-67
2022/03/24 02:47:03;;;;;;;42.03;24.30;;;;;;;3.75;78.15;102303.19;5136572;27;20193;-67
2022/03/24 02:49:30;;;;;;;42.97;24.33;;;;;;;3.73;78.42;102308.38;5137102;27;20245;-67
2022/03/24 02:52:00;;;;;;;42.50;26.27;;;;;;;3.72;78.65;102310.94;5136507;27;20535;-67
2022/03/24 02:54:29;;;;;;;47.43;27.20;;;;;;;3.70;78.58;102305.72;5135589;27;20216;-67
2022/03/24 02:56:55;;;;;;;52.20;26.13;;;;;;;3.73;78.74;102303.19;5134291;27;20592;-67
2022/03/24 02:59:22;;;;;;;54.63;29.07;;;;;;;3.71;78.65;102306.59;5131828;27;20246;-67
2022/03/24 03:02:00;;;;;;;49.70;27.73;;;;;;;3.65;78.38;102301.38;5115737;28;20654;-67
2022/03/24 03:04:29;;;;;;;45.47;26.40;;;;;;;3.59;78.50;102313.38;5115908;28;20236;-67
2022/03/24 03:06:55;;;;;;;39.20;25.03;;;;;;;3.59;78.95;102315.97;5126776;27;20203;-67
2022/03/24 03:09:22;;;;;;;42.30;25.03;;;;;;;3.50;79.43;102313.25;5136158;27;20558;-67
2022/03/24 03:11:49;;;;;;;53.60;27.77;;;;;;;3.51;80.13;102311.53;5136109;27;20193;-68
2022/03/24 03:14:17;;;;;;;42.43;25.87;;;;;;;3.44;80.41;102313.16;5135000;27;20196;-67
2022/03/24 03:16:44;;;;;;;38.33;24.97;;;;;;;3.49;80.72;102308.91;5123728;27;20215;-67
2022/03/24 03:19:17;;;;;;;45.50;26.17;;;;;;;3.47;81.54;102304.56;5135532;27;20237;-68
2022/03/24 03:21:44;;;;;;;42.30;25.90;;;;;;;3.49;81.84;102308.91;5135960;27;20229;-68
2022/03/24 03:24:11;;;;;;;39.73;24.80;;;;;;;3.47;82.13;102315.78;5134790;27;20228;-67
2022/03/24 03:26:39;;;;;;;43.53;25.50;;;;;;;3.43;82.07;102319.19;5115293;28;20551;-67
2022/03/24 03:29:07;;;;;;;43.97;26.33;;;;;;;3.40;82.63;102313.97;5115755;28;20183;-67
2022/03/24 03:31:34;;;;;;;42.20;25.17;;;;;;;3.34;82.98;102319.03;5134091;27;20197;-67
2022/03/24 03:34:02;;;;;;;41.30;24.47;;;;;;;3.36;83.09;102319.06;5135584;27;20233;-67
2022/03/24 03:36:30;;;;;;;45.63;25.30;;;;;;;3.44;83.33;102313.16;5132521;27;20188;-67
2022/03/24 03:38:58;;;;;;;37.67;23.93;;;;;;;3.40;83.98;102313.97;5114924;28;20214;-67
2022/03/24 03:41:26;;;;;;;38.17;24.20;;;;;;;3.35;84.49;102322.50;5114942;28;20189;-67
2022/03/24 03:43:53;;;;;;;36.60;24.50;;;;;;;3.36;84.55;102319.97;5114905;28;20205;-67
2022/03/24 03:46:19;;;;;;;40.77;24.53;;;;;;;3.31;84.60;102313.84;5129766;27;20195;-67
2022/03/24 03:48:47;;;;;;;47.43;25.03;;;;;;;3.29;84.74;102316.41;5135828;27;20196;-67
2022/03/24 03:51:14;;;;;;;42.63;24.87;;;;;;;3.31;84.93;102319.03;5135590;27;20545;-67
2022/03/24 03:53:41;;;;;;;43.00;26.37;;;;;;;3.30;84.98;102317.28;5135922;27;20210;-67
2022/03/24 03:56:09;;;;;;;40.17;25.17;;;;;;;3.28;84.96;102319.81;5131803;27;20197;-66
2022/03/24 03:58:36;;;;;;;42.83;25.70;;;;;;;3.23;84.75;102323.22;5121410;27;20242;-67
2022/03/24 04:01:04;;;;;;;42.50;26.93;;;;;;;3.22;84.79;102319.75;5134702;27;20202;-67
2022/03/24 04:03:33;;;;;;;38.57;24.20;;;;;;;3.22;84.96;102321.47;5135291;27;20213;-68
2022/03/24 04:06:04;;;;;;;42.33;26.13;;;;;;;3.12;84.99;102320.47;5135009;27;20186;-68
2022/03/24 04:08:31;;;;;;;39.80;24.60;;;;;;;3.09;85.05;102320.41;5131586;27;20578;-67
2022/03/24 04:10:58;;;;;;;47.93;25.13;;;;;;;3.10;84.85;102323.88;5118513;27;20532;-67
2022/03/24 04:13:25;;;;;;;39.47;26.10;;;;;;;3.08;84.59;102317.81;5134822;27;20213;-67
2022/03/24 04:15:53;;;;;;;46.30;26.57;;;;;;;3.08;84.73;102315.22;5116511;27;20202;-67
2022/03/24 04:18:22;;;;;;;38.37;24.40;;;;;;;3.07;84.52;102314.31;5114253;28;20189;-67
2022/03/24 04:20:49;;;;;;;49.27;26.30;;;;;;;3.07;84.34;102313.47;5114483;27;20210;-67
2022/03/24 04:23:18;;;;;;;43.90;28.67;;;;;;;3.06;84.21;102315.19;5114277;28;20222;-67
2022/03/24 04:25:45;;;;;;;53.80;28.30;;;;;;;3.04;84.18;102317.75;5114027;28;20195;-67
2022/03/24 04:28:12;;;;;;;51.10;27.47;;;;;;;2.97;84.19;102315.91;5114435;28;20175;-67
2022/03/24 04:30:39;;;;;;;42.77;26.60;;;;;;;2.94;84.01;102317.59;5128378;27;20637;-67
2022/03/24 04:33:06;;;;;;;41.70;26.70;;;;;;;2.88;83.71;102326.13;5134486;27;20226;-67
2022/03/24 04:35:32;;;;;;;40.20;26.63;;;;;;;2.83;83.72;102325.16;5116619;27;20189;-67
2022/03/24 04:37:59;;;;;;;45.63;26.57;;;;;;;2.83;83.64;102327.75;5135051;27;20192;-67
2022/03/24 04:40:26;;;;;;;42.93;25.90;;;;;;;2.79;83.71;102325.97;5121952;27;20208;-67
2022/03/24 04:42:54;;;;;;;47.47;27.60;;;;;;;2.78;83.45;102320.75;5114088;28;20207;-67
2022/03/24 04:45:22;;;;;;;52.87;27.07;;;;;;;2.71;83.38;102320.66;5123490;27;20200;-67
2022/03/24 04:47:49;;;;;;;44.33;27.40;;;;;;;2.66;83.36;102322.31;5134939;27;20173;-67
2022/03/24 04:50:19;;;;;;;39.83;25.83;;;;;;;2.64;83.54;102325.69;5134338;27;20179;-67
2022/03/24 04:52:47;;;;;;;44.07;25.90;;;;;;;2.63;83.52;102318.78;5117475;28;20187;-67
2022/03/24 04:55:14;;;;;;;37.13;23.93;;;;;;;2.60;83.52;102316.16;5113609;28;20193;-67
2022/03/24 04:57:42;;;;;;;47.37;25.87;;;;;;;2.53;83.54;102320.34;5095498;28;20598;-67
2022/03/24 05:00:11;;;;;;;48.23;26.50;;;;;;;2.48;83.85;102317.69;5119490;28;20203;-67
2022/03/24 05:02:39;;;;;;;47.83;26.70;;;;;;;2.47;84.14;102326.28;5134719;28;20525;-67
2022/03/24 05:05:06;;;;;;;47.33;26.50;;;;;;;2.44;84.35;102326.25;5134155;28;20189;-67
2022/03/24 05:07:33;;;;;;;51.77;25.83;;;;;;;2.42;84.58;102330.47;5134447;28;20685;-67
2022/03/24 05:09:59;;;;;;;58.07;27.63;;;;;;;2.42;84.71;102329.63;5132417;28;20242;-67
2022/03/24 05:12:26;;;;;;;37.70;25.07;;;;;;;2.40;85.10;102324.44;5134437;28;20190;-67
2022/03/24 05:14:53;;;;;;;41.00;25.07;;;;;;;2.38;85.15;102333.00;5132260;28;20205;-67
2022/03/24 05:17:19;;;;;;;42.27;25.97;;;;;;;2.34;85.13;102326.91;5113952;28;20644;-67
2022/03/24 05:19:48;;;;;;;45.67;25.33;;;;;;;2.31;85.39;102329.44;5123353;28;20605;-67
2022/03/24 05:22:16;;;;;;;39.17;25.33;;;;;;;2.26;85.61;102333.63;5134486;28;20643;-67
2022/03/24 05:24:43;;;;;;;45.33;26.53;;;;;;;2.27;85.61;102326.75;5134151;28;20240;-68
2022/03/24 05:27:11;;;;;;;44.83;26.00;;;;;;;2.27;86.02;102331.94;5133956;28;20220;-68
2022/03/24 05:29:38;;;;;;;56.57;28.03;;;;;;;2.31;86.19;102336.31;5134426;28;20192;-68
2022/03/24 05:32:05;;;;;;;47.73;26.17;;;;;;;2.29;86.71;102336.31;5115076;28;20201;-67
2022/03/24 05:34:32;;;;;;;51.27;27.43;;;;;;;2.32;86.76;102330.31;5113098;28;20736;-67
2022/03/24 05:37:00;;;;;;;54.10;27.83;;;;;;;2.29;86.89;102335.44;5113522;28;20582;-67
2022/03/24 05:39:27;;;;;;;45.47;26.70;;;;;;;2.29;87.12;102333.72;5116438;28;20206;-67
2022/03/24 05:41:53;;;;;;;60.63;28.30;;;;;;;2.29;87.55;102336.31;5133566;27;20243;-67
2022/03/24 05:44:20;;;;;;;56.07;27.67;;;;;;;2.32;87.54;102335.47;5137762;27;20206;-68
2022/03/24 05:46:47;;;;;;;50.47;28.57;;;;;;;2.30;87.39;102338.03;5123317;27;20194;-67
2022/03/24 05:49:16;;;;;;;60.73;30.37;;;;;;;2.29;87.21;102336.31;5117449;28;20244;-67
2022/03/24 05:51:50;;;;;;;51.63;28.13;;;;;;;2.26;87.24;102346.56;5117416;28;20169;-68
2022/03/24 05:54:17;;;;;;;51.50;27.40;;;;;;;2.26;87.01;102340.53;5136432;27;20217;-69
2022/03/24 05:56:45;;;;;;;54.70;28.00;;;;;;;2.27;86.62;102340.53;5137458;27;20600;-69
2022/03/24 05:59:13;;;;;;;45.90;27.73;;;;;;;2.31;86.83;102338.91;5137497;27;20193;-69
2022/03/24 06:01:42;;;;;;;50.70;27.87;;;;;;;2.30;86.86;102343.22;5125999;27;20664;-68
2022/03/24 06:04:13;;;;;;;65.07;30.53;;;;;;;2.35;87.19;102340.69;5116790;28;20216;-68
2022/03/24 06:06:41;;;;;;;60.80;30.13;;;;;;;2.41;86.81;102341.66;5117949;27;20169;-68
2022/03/24 06:09:08;;;;;;;58.20;28.53;;;;;;;2.34;86.93;102349.28;5099648;28;20238;-67
2022/03/24 06:11:36;;;;;;;56.77;28.40;;;;;;;2.33;87.04;102345.84;5117831;27;20282;-67
2022/03/24 06:14:03;;;;;;;81.20;31.40;;;;;;;2.41;86.76;102354.59;5116554;28;20736;-67
2022/03/24 06:16:30;;;;;;;53.87;29.63;;;;;;;2.44;87.19;102351.22;5124644;27;20182;-67
2022/03/24 06:18:57;;;;;;;55.73;29.03;;;;;;;2.56;87.17;102347.97;5137120;27;20186;-69
2022/03/24 06:21:23;;;;;;;57.23;29.67;;;;;;;2.65;87.32;102354.19;5137271;27;20265;-69
2022/03/24 06:23:50;;;;;;;65.63;30.63;;;;;;;2.73;87.45;102349.16;5137191;27;20204;-69
2022/03/24 06:26:19;;;;;;;59.23;29.63;;;;;;;2.83;87.55;102345.00;5131245;27;20182;-67
2022/03/24 06:28:45;;;;;;;60.43;32.40;;;;;;;2.91;87.57;102353.75;5116452;28;20592;-67
2022/03/24 06:31:12;;;;;;;59.17;31.03;;;;;;;2.99;87.70;102345.25;5119063;27;20588;-67
2022/03/24 06:33:39;;;;;;;59.70;31.17;;;;;;;3.11;87.74;102341.13;5136674;27;20223;-67
2022/03/24 06:36:06;;;;;;;72.87;30.03;;;;;;;3.20;87.48;102347.31;5136745;27;20186;-68
2022/03/24 06:38:32;;;;;;;63.57;31.43;;;;;;;3.16;87.38;102349.84;5136351;27;20203;-67
2022/03/24 06:40:59;;;;;;;57.77;32.10;;;;;;;3.25;87.14;102349.97;5136590;27;20744;-67
2022/03/24 06:43:25;;;;;;;71.47;32.03;;;;;;;3.28;86.85;102350.03;5136502;27;20204;-67
2022/03/24 06:45:52;;;;;;;67.07;32.03;;;;;;;3.34;86.59;102344.94;5132026;27;20201;-67
2022/03/24 06:48:18;;;;;;;61.60;31.43;;;;;;;3.48;86.65;102353.78;5120352;27;20219;-67
2022/03/24 06:50:45;;;;;;;58.17;32.43;;;;;;;3.65;86.92;102353.16;5128441;27;20211;-67
2022/03/24 06:53:12;;;;;;;69.87;31.60;;;;;;;3.78;86.89;102353.31;5136315;27;20216;-69
2022/03/24 06:55:38;;;;;;;58.90;31.13;;;;;;;3.90;87.00;102347.44;5136525;27;20198;-69
2022/03/24 06:58:06;;;;;;;57.90;32.43;;;;;;;4.00;86.89;102349.31;5123638;27;20663;-69
2022/03/24 07:00:32;;;;;;;68.03;33.30;;;;;;;4.12;86.44;102353.75;5116590;27;20205;-67
2022/03/24 07:02:59;;;;;;;65.47;34.17;;;;;;;4.23;85.19;102361.66;5117904;27;20704;-69
2022/03/24 07:05:26;;;;;;;66.43;36.23;;;;;;;4.42;84.57;102355.78;5097304;28;20226;-69
2022/03/24 07:07:54;;;;;;;74.80;34.50;;;;;;;4.62;84.94;102356.00;5115536;28;20205;-69
2022/03/24 07:10:21;;;;;;;73.60;37.03;;;;;;;4.73;86.78;102359.59;5129829;27;20180;-68
2022/03/24 07:12:49;;;;;;;86.67;39.27;;;;;;;4.89;87.16;102355.38;5136157;27;20191;-68
2022/03/24 07:15:16;;;;;;;81.57;39.43;;;;;;;5.12;86.68;102352.97;5136020;27;20191;-68
2022/03/24 07:17:43;;;;;;;73.67;38.87;;;;;;;5.24;86.55;102353.94;5118056;27;20189;-68
2022/03/24 07:20:09;;;;;;;78.13;37.43;;;;;;;5.45;86.08;102357.53;5115003;27;20201;-68
2022/03/24 07:22:37;;;;;;;84.93;37.60;;;;;;;5.68;85.57;102361.13;5099793;27;20188;-68
2022/03/24 07:25:06;;;;;;;67.37;36.67;;;;;;;5.88;83.97;102358.63;5133035;27;20673;-69
2022/03/24 07:27:34;;;;;;;71.63;35.70;;;;;;;6.13;81.24;102354.44;5135750;27;20188;-69
2022/03/24 07:30:02;;;;;;;62.80;33.57;;;;;;;6.33;79.91;102363.16;5135637;27;20187;-69
2022/03/24 07:32:29;;;;;;;65.37;34.87;;;;;;;6.59;78.43;102365.84;5121650;27;20213;-68
2022/03/24 07:34:55;;;;;;;74.43;33.73;;;;;;;6.78;77.57;102356.28;5115428;28;20174;-68
2022/03/24 07:37:22;;;;;;;64.83;35.03;;;;;;;7.03;75.38;102361.53;5115014;28;20193;-68
2022/03/24 07:39:48;;;;;;;74.07;34.50;;;;;;;7.24;75.54;102365.84;5114558;27;20190;-68
2022/03/24 07:42:15;;;;;;;60.47;33.77;;;;;;;7.40;75.13;102357.13;5115251;27;20193;-68
2022/03/24 07:44:42;;;;;;;81.43;33.60;;;;;;;7.53;75.25;102358.00;5119270;27;20209;-68
2022/03/24 07:47:08;;;;;;;66.03;35.03;;;;;;;7.68;73.52;102363.16;5132275;27;20194;-68
2022/03/24 07:49:35;;;;;;;68.50;35.37;;;;;;;7.87;72.58;102371.81;5135306;27;20185;-68
2022/03/24 07:52:11;;;;;;;79.97;36.50;;;;;;;8.03;70.75;102365.66;5135273;27;20248;-68
2022/03/24 07:54:57;;;;;;;65.87;35.80;;;;;;;8.20;70.25;102368.16;5133304;27;20223;-68
2022/03/24 07:57:31;;;;;;;73.97;34.97;;;;;;;8.37;69.53;102360.31;5114680;28;20653;-68
2022/03/24 07:59:58;;;;;;;69.27;35.53;;;;;;;8.38;68.20;102367.25;5126103;27;20181;-68
2022/03/24 08:02:25;;;;;;;68.27;36.23;;;;;;;8.52;68.50;102375.88;5086382;28;20543;-68
2022/03/24 08:04:55;;;;;;;71.47;37.47;;;;;;;8.67;68.67;102375.78;5119258;27;20224;-68
2022/03/24 08:07:21;;;;;;;72.67;36.43;;;;;;;8.83;67.28;102372.16;5122176;27;20354;-68
2022/03/24 08:09:50;;;;;;;61.93;35.73;;;;;;;8.91;65.42;102376.47;5126184;27;20193;-68
2022/03/24 08:12:17;;;;;;;71.30;35.80;;;;;;;9.01;66.37;102373.78;5114247;27;20193;-68
2022/03/24 08:14:44;;;;;;;66.73;36.70;;;;;;;9.04;66.18;102370.28;5114968;27;20235;-68
2022/03/24 08:17:10;;;;;;;68.47;36.53;;;;;;;9.17;63.72;102376.25;5115554;27;20181;-68
2022/03/24 08:19:37;;;;;;;81.40;37.33;;;;;;;9.27;63.37;102380.50;5122754;27;20185;-68
2022/03/24 08:22:03;;;;;;;71.77;36.63;;;;;;;9.44;63.02;102375.16;5117657;27;20258;-68
2022/03/24 08:24:30;;;;;;;72.87;36.83;;;;;;;9.54;62.33;102377.63;5113821;27;20212;-68
2022/03/24 08:26:57;;;;;;;64.37;35.90;;;;;;;9.70;62.60;102383.56;5131762;27;20269;-68
2022/03/24 08:29:24;;;;;;;67.73;34.60;;;;;;;9.76;63.14;102382.63;5114145;27;20197;-68
2022/03/24 08:31:50;;;;;;;63.90;35.87;;;;;;;9.95;62.36;102380.69;5115207;27;20177;-68
2022/03/24 08:34:17;;;;;;;67.30;36.67;;;;;;;10.05;62.63;102377.94;5113897;28;20207;-69
2022/03/24 08:36:44;;;;;;;58.10;36.07;;;;;;;10.15;61.89;102378.69;5114000;28;20646;-69
2022/03/24 08:39:10;;;;;;;65.00;34.70;;;;;;;10.38;61.30;102383.66;5121567;27;20198;-68
2022/03/24 08:41:37;;;;;;;70.03;34.97;;;;;;;10.56;62.64;102380.75;5134628;27;20200;-68
2022/03/24 08:44:04;;;;;;;56.20;35.37;;;;;;;10.74;61.29;102379.63;5134455;27;20688;-68
2022/03/24 08:46:31;;;;;;;59.27;34.43;;;;;;;10.93;60.12;102377.56;5129724;27;20196;-68
2022/03/24 08:48:58;;;;;;;63.00;36.00;;;;;;;10.96;59.82;102374.94;5122110;27;20190;-69
2022/03/24 08:51:25;;;;;;;60.07;35.27;;;;;;;11.07;59.13;102378.22;5120366;27;20191;-68
2022/03/24 08:53:52;;;;;;;59.07;34.33;;;;;;;11.30;58.67;102376.09;5132651;27;20709;-68
2022/03/24 08:56:18;;;;;;;63.47;36.40;;;;;;;11.46;57.77;102378.44;5118657;28;20197;-69
2022/03/24 08:58:45;;;;;;;61.33;36.67;;;;;;;11.54;57.06;102376.53;5113698;28;20720;-69
2022/03/24 09:01:13;;;;;;;69.00;37.30;;;;;;;11.71;57.66;102378.81;5116195;28;20201;-69
2022/03/24 09:03:39;;;;;;;66.67;36.97;;;;;;;11.87;58.17;102374.19;5121904;28;20682;-69
2022/03/24 09:06:07;;;;;;;62.77;37.90;;;;;;;12.07;56.87;102385.13;5124644;28;20193;-69
2022/03/24 09:08:34;;;;;;;65.47;35.53;;;;;;;12.26;55.99;102377.75;5127794;28;20573;-69
2022/03/24 09:11:00;;;;;;;64.20;35.33;;;;;;;12.43;54.98;102374.72;5131020;28;20192;-69
2022/03/24 09:13:27;;;;;;;78.50;36.83;;;;;;;12.47;54.85;102379.91;5126662;27;20700;-69
2022/03/24 09:15:54;;;;;;;60.87;34.77;;;;;;;12.60;54.92;102375.22;5132220;27;20189;-69
2022/03/24 09:18:21;;;;;;;59.10;37.13;;;;;;;12.74;54.91;102378.41;5128824;27;20211;-69
2022/03/24 09:20:48;;;;;;;59.70;35.17;;;;;;;12.95;54.63;102383.16;5130572;27;20233;-68
2022/03/24 09:23:15;;;;;;;55.00;35.33;;;;;;;13.05;54.04;102388.16;5113785;27;20239;-68
2022/03/24 09:25:42;;;;;;;59.00;36.30;;;;;;;13.16;52.48;102388.78;5128851;27;20189;-69
2022/03/24 09:28:10;;;;;;;63.33;37.70;;;;;;;13.26;49.79;102390.28;5120229;27;20219;-68
2022/03/24 09:30:36;;;;;;;59.10;36.03;;;;;;;13.41;48.88;102387.25;5117750;27;20204;-69
2022/03/24 09:33:04;;;;;;;62.83;36.03;;;;;;;13.62;48.87;102387.59;5136549;27;20208;-69
2022/03/24 09:35:31;;;;;;;53.33;35.30;;;;;;;13.77;46.20;102392.44;5137084;27;20273;-69
2022/03/24 09:37:57;;;;;;;68.93;36.77;;;;;;;13.84;47.05;102388.72;5135728;27;20196;-69
2022/03/24 09:40:24;;;;;;;67.80;36.57;;;;;;;14.00;46.32;102384.78;5129121;27;20204;-69
2022/03/24 09:42:51;;;;;;;59.17;33.53;;;;;;;14.13;46.21;102382.63;5117207;28;20213;-69
2022/03/24 09:45:17;;;;;;;60.27;34.77;;;;;;;14.25;46.91;102382.28;5117247;28;20212;-69
2022/03/24 09:47:44;;;;;;;59.53;35.17;;;;;;;14.43;45.47;102386.13;5133519;27;20188;-69
2022/03/24 09:50:12;;;;;;;63.67;35.23;;;;;;;14.52;44.49;102383.25;5138270;27;20181;-69
2022/03/24 09:52:39;;;;;;;59.50;36.47;;;;;;;14.77;44.58;102385.09;5138189;27;20161;-69
2022/03/24 09:55:07;;;;;;;65.67;37.73;;;;;;;15.11;44.08;102379.59;5137702;27;20257;-69
2022/03/24 09:57:33;;;;;;;65.97;38.03;;;;;;;15.12;44.94;102373.38;5129985;27;20646;-69
2022/03/24 10:00:00;;;;;;;59.97;37.17;;;;;;;15.41;44.64;102380.31;5116953;28;20196;-69
2022/03/24 10:02:30;;;;;;;67.13;38.07;;;;;;;15.39;45.63;102371.59;5129648;27;20200;-69
2022/03/24 10:05:01;;;;;;;60.83;37.93;;;;;;;15.37;44.59;102371.66;5137367;27;20185;-69
2022/03/24 10:07:34;;;;;;;71.53;37.67;;;;;;;15.31;46.94;102369.22;5137813;27;20175;-69
2022/03/24 10:10:02;;;;;;;68.53;37.10;;;;;;;15.46;43.92;102370.47;5136816;27;20211;-69
2022/03/24 10:12:36;;;;;;;63.83;38.27;;;;;;;15.59;44.73;102370.88;5137654;27;20180;-69
2022/03/24 10:15:08;;;;;;;62.00;35.43;;;;;;;15.69;45.64;102369.66;5137223;27;20184;-69
2022/03/24 10:17:36;;;;;;;65.83;37.43;;;;;;;15.88;44.84;102364.56;5125084;27;20663;-69
2022/03/24 10:20:08;;;;;;;58.17;37.10;;;;;;;15.88;44.13;102375.16;5132449;27;20197;-69
2022/03/24 10:22:36;;;;;;;70.83;37.60;;;;;;;15.99;43.54;102365.03;5137039;27;20612;-69
2022/03/24 10:25:19;;;;;;;61.23;37.30;;;;;;;16.10;43.13;102365.50;5136328;27;20201;-69
2022/03/24 10:28:10;;;;;;;63.13;35.60;;;;;;;16.36;42.12;102366.25;5137431;27;20633;-70
2022/03/24 10:30:58;;;;;;;57.07;34.87;;;;;;;16.70;43.65;102363.16;5116074;28;20251;-71
2022/03/24 10:33:28;;;;;;;59.27;37.77;;;;;;;17.03;40.17;102355.63;5132665;27;20215;-69
2022/03/24 10:36:18;;;;;;;56.83;36.13;;;;;;;17.04;41.44;102360.00;5136847;27;20189;-69
2022/03/24 10:38:53;;;;;;;55.90;36.87;;;;;;;17.11;42.50;102363.25;5137101;27;20180;-70
2022/03/24 10:41:25;;;;;;;53.47;36.10;;;;;;;17.20;43.26;102349.63;5127738;27;20196;-70
2022/03/24 10:43:54;;;;;;;59.23;34.77;;;;;;;17.12;40.20;102357.88;5116290;28;20621;-70
2022/03/24 10:46:24;;;;;;;69.07;38.17;;;;;;;17.18;40.41;102354.97;5116046;28;20193;-70
2022/03/24 10:48:52;;;;;;;52.23;35.90;;;;;;;17.26;40.76;102352.88;5133967;27;20191;-70
2022/03/24 10:51:30;;;;;;;52.47;36.97;;;;;;;17.41;38.59;102355.78;5136535;27;20176;-70
2022/03/24 10:54:17;;;;;;;56.00;35.47;;;;;;;17.62;39.14;102352.19;5123602;27;20617;-70
2022/03/24 10:56:46;;;;;;;52.93;33.53;;;;;;;17.71;38.46;102356.22;5115692;28;20193;-70
2022/03/24 10:59:13;;;;;;;45.63;31.27;;;;;;;17.87;36.69;102347.53;5115826;28;20193;-70
2022/03/24 11:01:40;;;;;;;50.07;31.77;;;;;;;18.00;34.25;102350.50;5115698;28;20209;-70
2022/03/24 11:04:07;;;;;;;54.57;33.07;;;;;;;18.13;35.77;102343.66;5133827;27;20261;-70
2022/03/24 11:06:34;;;;;;;53.10;30.60;;;;;;;18.35;35.06;102343.50;5136773;27;20666;-70
2022/03/24 11:09:01;;;;;;;49.27;30.73;;;;;;;18.59;32.43;102340.63;5136160;27;20180;-70
2022/03/24 11:11:29;;;;;;;49.83;32.67;;;;;;;18.72;35.28;102341.78;5136736;27;20180;-71
2022/03/24 11:14:02;;;;;;;55.80;28.57;;;;;;;18.69;30.11;102333.94;5134815;27;20252;-70
2022/03/24 11:16:31;;;;;;;46.97;28.50;;;;;;;18.64;29.61;102335.91;5117598;27;20185;-70
2022/03/24 11:19:01;;;;;;;52.20;29.27;;;;;;;18.50;29.87;102338.38;5120656;27;20188;-70